Terminal Aerodrome Forecast
Issued by NWS Spokane, WA

Home | Current Version | Previous Version | Text Only | Print | Product List | Glossary On
Versions: 1 2 3 4 5 6 7 8 9 10 11 12 13 14 15
000
FTUS46 KOTX 201138
TAFEAT
TAF
KEAT 201138Z 2012/2112 31006KT P6SM SCT180 BKN250
     FM201900 13006KT P6SM SCT120 BKN150 OVC200
     FM210600 31004KT P6SM SCT120 BKN150 OVC200=

USA.gov is the U.S. government's official web portal to all federal, state and local government web resources and services.